首页
METAR-TAF:

METAR-TAF

机场 :

大不里士, 伊朗

纬度: 38-05N, 经度: 046-17E, 海拔: 1367米

当前天气观测

该预报发布于15分钟前的08:30 UTC
风速8节,风向西
温度 2°C
湿度 69%
气压 1017 hPa
能見度: 6000
散云层高于700英尺
散云层高于3000英尺
多云层高于8000英尺

METAR: OITT 170830Z 26008KT 6000 SCT007 SCT030 BKN080 02/M03 Q1017 A3003

时间: 12:15 (08:45 UTC)

预报

该预报发布于3小时和15分钟前的05:30 UTC
预报有效从17日的 06点(UTC)到 18日的 12点(UTC)
风速8节,风向西
能見度: 4000
多云层高于1000英尺
散云层高于3000英尺
多云层高于8000英尺
轻雾
短暂存在
从 17日的 06点(UTC)到 17日的 10点(UTC)
能見度: 2000
散云层高于400英尺
阴天层高于6000英尺
雪, 轻雾
成为
从 17日的 10点(UTC)到 17日的 11点(UTC)
风速18节,风向西转西北,有时为25节阵风
能見度: 8000
少量云层高于3000英尺
散云层高于10000英尺
成为
从 17日的 14点(UTC)到 17日的 16点(UTC)
风速8节,风向西北
短暂存在
从 17日的 23点(UTC)到 18日的 04点(UTC)
能見度: 4000
轻雾
短暂存在
从 18日的 09点(UTC)到 18日的 12点(UTC)
风速18节,风向西转西北

TAF: OITT 170530Z 1706/1812 26008KT 4000 BR BKN010 SCT030 BKN080 TEMPO 1706/1710 2000 SN BR SCT004 OVC060 BECMG 1710/1711 29018G25KT 8000 FEW030 SCT100 BECMG 1714/1716 32008KT TEMPO 1723/1804 4000 BR TEMPO 1809/1812 29018KT

超过4000个机场的气象观测和天气预报(METAR&TAF报告)。

可查询的气象台以黄色和红色小点在地图上表示。

将鼠标移到小点上方,可查看气象台名称。

然后点击查看天气观测和预报。

如需切换地图:点击带黑十字的绿色按钮放大地图;点击带横线的绿色按钮缩小地图;或者点击绿色箭头查看邻近地区的地图。


METAR-TAF: